Terminal Aerodrome Forecast
Issued by NWS Greer, SC

Current Version | Previous Version | Text Only | Print | Product List | Glossary On
Versions: 1 2 3 4 5 6 7 8 9 10 11 12 13 14 15 16 17 18 19
000
FTUS42 KGSP 020542
TAFGSP
TAF
KGSP 020542Z 0206/0306 00000KT P6SM SCT250
     FM020900 10004KT P6SM BKN060
     FM021300 10004KT P6SM BKN018
     FM021700 16004KT P6SM VCSH OVC012
     FM022200 20005KT P6SM VCSH OVC011
     FM030400 20004KT P6SM OVC015=

USA.gov is the U.S. government's official web portal to all federal, state and local government web resources and services.